sensor_id;sensor_type;location;lat;lon;timestamp;P1;durP1;ratioP1;P2;durP2;ratioP2
59790;SDS011;47431;51.640;5.554;2022-07-17T00:01:11;8.38;;;3.35;;
59790;SDS011;47431;51.640;5.554;2022-07-17T00:03:36;8.32;;;3.38;;
59790;SDS011;47431;51.640;5.554;2022-07-17T00:06:01;10.80;;;3.33;;
59790;SDS011;47431;51.640;5.554;2022-07-17T00:08:27;11.05;;;3.95;;
59790;SDS011;47431;51.640;5.554;2022-07-17T00:10:52;9.82;;;3.05;;
59790;SDS011;47431;51.640;5.554;2022-07-17T00:13:17;10.40;;;2.97;;
59790;SDS011;47431;51.640;5.554;2022-07-17T00:15:42;6.35;;;3.45;;
59790;SDS011;47431;51.640;5.554;2022-07-17T00:18:07;12.82;;;3.60;;
59790;SDS011;47431;51.640;5.554;2022-07-17T00:20:33;10.65;;;3.88;;
59790;SDS011;47431;51.640;5.554;2022-07-17T00:22:58;7.07;;;3.92;;
59790;SDS011;47431;51.640;5.554;2022-07-17T00:25:24;8.18;;;3.50;;
59790;SDS011;47431;51.640;5.554;2022-07-17T00:27:49;8.82;;;3.40;;
59790;SDS011;47431;51.640;5.554;2022-07-17T00:30:14;8.80;;;4.53;;
59790;SDS011;47431;51.640;5.554;2022-07-17T00:32:40;5.78;;;3.47;;
59790;SDS011;47431;51.640;5.554;2022-07-17T00:35:05;7.68;;;3.63;;
59790;SDS011;47431;51.640;5.554;2022-07-17T00:37:37;12.50;;;3.95;;
59790;SDS011;47431;51.640;5.554;2022-07-17T00:40:02;6.60;;;3.25;;
59790;SDS011;47431;51.640;5.554;2022-07-17T00:42:28;8.80;;;4.18;;
59790;SDS011;47431;51.640;5.554;2022-07-17T00:44:53;9.10;;;3.50;;
59790;SDS011;47431;51.640;5.554;2022-07-17T00:47:19;12.40;;;3.78;;
59790;SDS011;47431;51.640;5.554;2022-07-17T00:49:45;9.80;;;3.90;;
59790;SDS011;47431;51.640;5.554;2022-07-17T00:52:11;6.35;;;4.05;;
59790;SDS011;47431;51.640;5.554;2022-07-17T00:54:40;10.98;;;3.22;;
59790;SDS011;47431;51.640;5.554;2022-07-17T00:57:05;8.82;;;4.88;;
59790;SDS011;47431;51.640;5.554;2022-07-17T00:59:31;11.35;;;4.40;;
59790;SDS011;47431;51.640;5.554;2022-07-17T01:01:58;10.77;;;4.25;;
59790;SDS011;47431;51.640;5.554;2022-07-17T01:04:23;11.60;;;4.65;;
59790;SDS011;47431;51.640;5.554;2022-07-17T01:06:48;10.93;;;3.85;;
59790;SDS011;47431;51.640;5.554;2022-07-17T01:09:13;10.15;;;4.40;;
59790;SDS011;47431;51.640;5.554;2022-07-17T01:11:39;10.93;;;4.47;;
59790;SDS011;47431;51.640;5.554;2022-07-17T01:14:04;9.63;;;4.05;;
59790;SDS011;47431;51.640;5.554;2022-07-17T01:16:30;8.10;;;4.80;;
59790;SDS011;47431;51.640;5.554;2022-07-17T01:18:55;13.05;;;4.72;;
59790;SDS011;47431;51.640;5.554;2022-07-17T01:21:21;8.23;;;4.57;;
59790;SDS011;47431;51.640;5.554;2022-07-17T01:23:46;11.02;;;4.35;;
59790;SDS011;47431;51.640;5.554;2022-07-17T01:26:12;12.00;;;4.40;;
59790;SDS011;47431;51.640;5.554;2022-07-17T01:28:37;9.65;;;4.63;;
59790;SDS011;47431;51.640;5.554;2022-07-17T01:31:02;10.30;;;4.32;;
59790;SDS011;47431;51.640;5.554;2022-07-17T01:33:28;9.68;;;5.63;;
59790;SDS011;47431;51.640;5.554;2022-07-17T01:35:53;9.68;;;4.47;;
59790;SDS011;47431;51.640;5.554;2022-07-17T01:38:18;8.73;;;5.10;;
59790;SDS011;47431;51.640;5.554;2022-07-17T01:40:44;13.57;;;5.07;;
59790;SDS011;47431;51.640;5.554;2022-07-17T01:43:09;8.27;;;4.35;;
59790;SDS011;47431;51.640;5.554;2022-07-17T01:45:34;7.20;;;4.50;;
59790;SDS011;47431;51.640;5.554;2022-07-17T01:47:59;9.63;;;5.90;;
59790;SDS011;47431;51.640;5.554;2022-07-17T01:50:25;10.73;;;6.15;;
59790;SDS011;47431;51.640;5.554;2022-07-17T01:52:50;10.07;;;5.95;;
59790;SDS011;47431;51.640;5.554;2022-07-17T01:55:15;15.98;;;5.95;;
59790;SDS011;47431;51.640;5.554;2022-07-17T01:57:41;9.85;;;5.55;;
59790;SDS011;47431;51.640;5.554;2022-07-17T02:00:08;7.95;;;5.00;;
59790;SDS011;47431;51.640;5.554;2022-07-17T02:02:33;8.50;;;5.10;;
59790;SDS011;47431;51.640;5.554;2022-07-17T02:04:58;9.88;;;5.68;;
59790;SDS011;47431;51.640;5.554;2022-07-17T02:07:24;8.93;;;5.25;;
59790;SDS011;47431;51.640;5.554;2022-07-17T02:09:49;10.85;;;5.05;;
59790;SDS011;47431;51.640;5.554;2022-07-17T02:12:15;13.65;;;6.13;;
59790;SDS011;47431;51.640;5.554;2022-07-17T02:14:40;10.13;;;5.50;;
59790;SDS011;47431;51.640;5.554;2022-07-17T02:17:05;11.23;;;5.57;;
59790;SDS011;47431;51.640;5.554;2022-07-17T02:19:30;10.20;;;4.95;;
59790;SDS011;47431;51.640;5.554;2022-07-17T02:21:56;13.52;;;5.90;;
59790;SDS011;47431;51.640;5.554;2022-07-17T02:24:21;8.10;;;5.38;;
59790;SDS011;47431;51.640;5.554;2022-07-17T02:26:46;10.75;;;5.82;;
59790;SDS011;47431;51.640;5.554;2022-07-17T02:29:11;7.88;;;4.88;;
59790;SDS011;47431;51.640;5.554;2022-07-17T02:31:36;12.38;;;5.20;;
59790;SDS011;47431;51.640;5.554;2022-07-17T02:34:02;10.50;;;6.18;;
59790;SDS011;47431;51.640;5.554;2022-07-17T02:36:27;9.27;;;5.35;;
59790;SDS011;47431;51.640;5.554;2022-07-17T02:38:52;11.88;;;6.45;;
59790;SDS011;47431;51.640;5.554;2022-07-17T02:41:17;8.95;;;5.70;;
59790;SDS011;47431;51.640;5.554;2022-07-17T02:43:42;9.82;;;5.90;;
59790;SDS011;47431;51.640;5.554;2022-07-17T02:46:08;10.15;;;5.82;;
59790;SDS011;47431;51.640;5.554;2022-07-17T02:48:33;9.60;;;6.03;;
59790;SDS011;47431;51.640;5.554;2022-07-17T02:50:58;12.75;;;6.70;;
59790;SDS011;47431;51.640;5.554;2022-07-17T02:53:23;15.63;;;7.00;;
59790;SDS011;47431;51.640;5.554;2022-07-17T02:55:48;10.90;;;6.45;;
59790;SDS011;47431;51.640;5.554;2022-07-17T02:58:14;11.70;;;6.10;;
59790;SDS011;47431;51.640;5.554;2022-07-17T03:00:39;11.73;;;7.05;;
59790;SDS011;47431;51.640;5.554;2022-07-17T03:03:04;9.65;;;6.22;;
59790;SDS011;47431;51.640;5.554;2022-07-17T03:05:29;10.52;;;6.47;;
59790;SDS011;47431;51.640;5.554;2022-07-17T03:07:55;7.78;;;5.57;;
59790;SDS011;47431;51.640;5.554;2022-07-17T03:10:20;12.70;;;6.50;;
59790;SDS011;47431;51.640;5.554;2022-07-17T03:12:45;8.57;;;5.43;;
59790;SDS011;47431;51.640;5.554;2022-07-17T03:15:10;14.48;;;6.57;;
59790;SDS011;47431;51.640;5.554;2022-07-17T03:17:37;14.43;;;5.72;;
59790;SDS011;47431;51.640;5.554;2022-07-17T03:20:02;9.57;;;5.78;;
59790;SDS011;47431;51.640;5.554;2022-07-17T03:22:28;15.50;;;5.72;;
59790;SDS011;47431;51.640;5.554;2022-07-17T03:24:53;9.85;;;5.78;;
59790;SDS011;47431;51.640;5.554;2022-07-17T03:27:18;12.98;;;6.60;;
59790;SDS011;47431;51.640;5.554;2022-07-17T03:29:44;12.88;;;5.93;;
59790;SDS011;47431;51.640;5.554;2022-07-17T03:32:09;21.35;;;6.82;;
59790;SDS011;47431;51.640;5.554;2022-07-17T03:34:35;9.32;;;6.00;;
59790;SDS011;47431;51.640;5.554;2022-07-17T03:37:00;9.98;;;6.03;;
59790;SDS011;47431;51.640;5.554;2022-07-17T03:39:26;11.93;;;6.80;;
59790;SDS011;47431;51.640;5.554;2022-07-17T03:41:51;9.10;;;5.72;;
59790;SDS011;47431;51.640;5.554;2022-07-17T03:44:16;9.18;;;5.65;;
59790;SDS011;47431;51.640;5.554;2022-07-17T03:46:41;11.80;;;6.10;;
59790;SDS011;47431;51.640;5.554;2022-07-17T03:49:07;9.95;;;6.30;;
59790;SDS011;47431;51.640;5.554;2022-07-17T03:51:32;9.07;;;6.30;;
59790;SDS011;47431;51.640;5.554;2022-07-17T03:53:57;11.50;;;6.72;;
59790;SDS011;47431;51.640;5.554;2022-07-17T03:56:22;11.90;;;6.45;;
59790;SDS011;47431;51.640;5.554;2022-07-17T03:58:48;10.80;;;7.07;;
59790;SDS011;47431;51.640;5.554;2022-07-17T04:01:13;7.78;;;5.20;;
59790;SDS011;47431;51.640;5.554;2022-07-17T04:03:38;10.60;;;5.95;;
59790;SDS011;47431;51.640;5.554;2022-07-17T04:06:03;18.60;;;5.82;;
59790;SDS011;47431;51.640;5.554;2022-07-17T04:08:28;8.70;;;5.95;;
59790;SDS011;47431;51.640;5.554;2022-07-17T04:10:54;19.02;;;6.65;;
59790;SDS011;47431;51.640;5.554;2022-07-17T04:13:19;15.45;;;7.10;;
59790;SDS011;47431;51.640;5.554;2022-07-17T04:15:44;10.68;;;5.63;;
59790;SDS011;47431;51.640;5.554;2022-07-17T04:18:18;12.50;;;6.65;;
59790;SDS011;47431;51.640;5.554;2022-07-17T04:20:43;12.10;;;6.50;;
59790;SDS011;47431;51.640;5.554;2022-07-17T04:23:09;10.27;;;6.40;;
59790;SDS011;47431;51.640;5.554;2022-07-17T04:25:34;9.43;;;6.40;;
59790;SDS011;47431;51.640;5.554;2022-07-17T04:27:59;9.18;;;6.18;;
59790;SDS011;47431;51.640;5.554;2022-07-17T04:30:27;17.17;;;6.50;;
59790;SDS011;47431;51.640;5.554;2022-07-17T04:32:52;14.30;;;7.20;;
59790;SDS011;47431;51.640;5.554;2022-07-17T04:38:23;14.65;;;7.18;;
59790;SDS011;47431;51.640;5.554;2022-07-17T04:40:48;13.50;;;7.32;;
59790;SDS011;47431;51.640;5.554;2022-07-17T04:43:16;10.30;;;6.68;;
59790;SDS011;47431;51.640;5.554;2022-07-17T04:45:47;21.42;;;7.07;;
59790;SDS011;47431;51.640;5.554;2022-07-17T04:48:12;12.65;;;7.28;;
59790;SDS011;47431;51.640;5.554;2022-07-17T04:50:37;9.93;;;6.70;;
59790;SDS011;47431;51.640;5.554;2022-07-17T04:53:02;15.18;;;6.75;;
59790;SDS011;47431;51.640;5.554;2022-07-17T04:55:48;12.95;;;5.72;;
59790;SDS011;47431;51.640;5.554;2022-07-17T05:00:58;9.15;;;4.93;;
59790;SDS011;47431;51.640;5.554;2022-07-17T05:03:23;8.93;;;4.82;;
59790;SDS011;47431;51.640;5.554;2022-07-17T05:05:48;11.35;;;5.82;;
59790;SDS011;47431;51.640;5.554;2022-07-17T05:11:08;11.15;;;5.38;;
59790;SDS011;47431;51.640;5.554;2022-07-17T05:13:33;10.60;;;5.85;;
59790;SDS011;47431;51.640;5.554;2022-07-17T05:18:44;15.27;;;6.15;;
59790;SDS011;47431;51.640;5.554;2022-07-17T05:21:09;12.88;;;4.53;;
59790;SDS011;47431;51.640;5.554;2022-07-17T05:23:35;14.25;;;5.95;;
59790;SDS011;47431;51.640;5.554;2022-07-17T05:26:00;10.15;;;5.70;;
59790;SDS011;47431;51.640;5.554;2022-07-17T05:28:25;11.85;;;5.07;;
59790;SDS011;47431;51.640;5.554;2022-07-17T05:30:50;14.75;;;5.20;;
59790;SDS011;47431;51.640;5.554;2022-07-17T05:33:15;9.82;;;5.82;;
59790;SDS011;47431;51.640;5.554;2022-07-17T05:35:41;17.40;;;6.13;;
59790;SDS011;47431;51.640;5.554;2022-07-17T05:38:06;10.70;;;5.68;;
59790;SDS011;47431;51.640;5.554;2022-07-17T05:40:31;12.25;;;5.80;;
59790;SDS011;47431;51.640;5.554;2022-07-17T05:42:56;20.38;;;5.57;;
59790;SDS011;47431;51.640;5.554;2022-07-17T05:45:23;16.50;;;6.68;;
59790;SDS011;47431;51.640;5.554;2022-07-17T05:47:48;13.73;;;5.95;;
59790;SDS011;47431;51.640;5.554;2022-07-17T05:50:13;13.48;;;6.40;;
59790;SDS011;47431;51.640;5.554;2022-07-17T05:52:38;19.25;;;5.70;;
59790;SDS011;47431;51.640;5.554;2022-07-17T05:55:04;11.68;;;5.40;;
59790;SDS011;47431;51.640;5.554;2022-07-17T05:57:29;9.48;;;5.35;;
59790;SDS011;47431;51.640;5.554;2022-07-17T05:59:54;11.68;;;5.20;;
59790;SDS011;47431;51.640;5.554;2022-07-17T06:02:19;13.23;;;4.75;;
59790;SDS011;47431;51.640;5.554;2022-07-17T06:04:44;12.48;;;4.78;;
59790;SDS011;47431;51.640;5.554;2022-07-17T06:07:10;8.93;;;4.68;;
59790;SDS011;47431;51.640;5.554;2022-07-17T06:09:35;10.85;;;5.32;;
59790;SDS011;47431;51.640;5.554;2022-07-17T06:12:00;10.65;;;4.95;;
59790;SDS011;47431;51.640;5.554;2022-07-17T06:14:25;10.90;;;4.00;;
59790;SDS011;47431;51.640;5.554;2022-07-17T06:16:50;10.95;;;4.03;;
59790;SDS011;47431;51.640;5.554;2022-07-17T06:19:16;6.75;;;3.03;;
59790;SDS011;47431;51.640;5.554;2022-07-17T06:21:41;12.93;;;3.88;;
59790;SDS011;47431;51.640;5.554;2022-07-17T06:24:06;9.95;;;3.85;;
59790;SDS011;47431;51.640;5.554;2022-07-17T06:26:31;15.15;;;3.72;;
59790;SDS011;47431;51.640;5.554;2022-07-17T06:28:57;8.70;;;3.40;;
59790;SDS011;47431;51.640;5.554;2022-07-17T06:31:22;10.75;;;3.97;;
59790;SDS011;47431;51.640;5.554;2022-07-17T06:33:48;9.35;;;3.58;;
59790;SDS011;47431;51.640;5.554;2022-07-17T06:36:13;13.88;;;4.40;;
59790;SDS011;47431;51.640;5.554;2022-07-17T06:38:38;13.15;;;4.25;;
59790;SDS011;47431;51.640;5.554;2022-07-17T06:41:03;13.80;;;3.45;;
59790;SDS011;47431;51.640;5.554;2022-07-17T06:43:29;9.30;;;3.40;;
59790;SDS011;47431;51.640;5.554;2022-07-17T06:45:54;9.35;;;3.58;;
59790;SDS011;47431;51.640;5.554;2022-07-17T06:48:21;7.47;;;3.90;;
59790;SDS011;47431;51.640;5.554;2022-07-17T06:50:46;9.27;;;4.05;;
59790;SDS011;47431;51.640;5.554;2022-07-17T06:53:11;10.80;;;4.50;;
59790;SDS011;47431;51.640;5.554;2022-07-17T06:55:36;8.73;;;4.75;;
59790;SDS011;47431;51.640;5.554;2022-07-17T06:58:02;11.75;;;4.03;;
59790;SDS011;47431;51.640;5.554;2022-07-17T07:00:27;10.02;;;5.38;;
59790;SDS011;47431;51.640;5.554;2022-07-17T07:02:52;12.27;;;3.67;;
59790;SDS011;47431;51.640;5.554;2022-07-17T07:05:20;9.50;;;4.13;;
59790;SDS011;47431;51.640;5.554;2022-07-17T07:07:45;7.68;;;3.78;;
59790;SDS011;47431;51.640;5.554;2022-07-17T07:10:13;10.30;;;3.78;;
59790;SDS011;47431;51.640;5.554;2022-07-17T07:12:38;11.80;;;4.28;;
59790;SDS011;47431;51.640;5.554;2022-07-17T07:15:04;13.82;;;4.90;;
59790;SDS011;47431;51.640;5.554;2022-07-17T07:17:29;9.73;;;4.22;;
59790;SDS011;47431;51.640;5.554;2022-07-17T07:19:56;10.02;;;3.78;;
59790;SDS011;47431;51.640;5.554;2022-07-17T07:22:22;12.98;;;4.25;;
59790;SDS011;47431;51.640;5.554;2022-07-17T07:24:47;10.68;;;4.68;;
59790;SDS011;47431;51.640;5.554;2022-07-17T07:27:12;14.13;;;4.75;;
59790;SDS011;47431;51.640;5.554;2022-07-17T07:29:37;13.10;;;4.38;;
59790;SDS011;47431;51.640;5.554;2022-07-17T07:32:02;18.95;;;6.07;;
59790;SDS011;47431;51.640;5.554;2022-07-17T07:34:28;13.15;;;4.85;;
59790;SDS011;47431;51.640;5.554;2022-07-17T07:36:53;9.70;;;3.92;;
59790;SDS011;47431;51.640;5.554;2022-07-17T07:39:18;11.10;;;5.30;;
59790;SDS011;47431;51.640;5.554;2022-07-17T07:41:43;9.70;;;3.67;;
59790;SDS011;47431;51.640;5.554;2022-07-17T07:44:09;8.50;;;3.80;;
59790;SDS011;47431;51.640;5.554;2022-07-17T07:46:34;10.75;;;4.35;;
59790;SDS011;47431;51.640;5.554;2022-07-17T07:48:59;8.85;;;3.90;;
59790;SDS011;47431;51.640;5.554;2022-07-17T07:51:24;8.23;;;4.13;;
59790;SDS011;47431;51.640;5.554;2022-07-17T07:53:50;7.85;;;4.00;;
59790;SDS011;47431;51.640;5.554;2022-07-17T07:56:15;14.07;;;4.60;;
59790;SDS011;47431;51.640;5.554;2022-07-17T07:58:40;10.90;;;4.07;;
59790;SDS011;47431;51.640;5.554;2022-07-17T08:01:05;13.40;;;3.73;;
59790;SDS011;47431;51.640;5.554;2022-07-17T08:03:30;11.63;;;4.38;;
59790;SDS011;47431;51.640;5.554;2022-07-17T08:05:55;9.82;;;3.53;;
59790;SDS011;47431;51.640;5.554;2022-07-17T08:08:21;10.07;;;3.65;;
59790;SDS011;47431;51.640;5.554;2022-07-17T08:10:46;7.18;;;2.42;;
59790;SDS011;47431;51.640;5.554;2022-07-17T08:13:11;19.92;;;3.40;;
59790;SDS011;47431;51.640;5.554;2022-07-17T08:15:37;7.70;;;2.75;;
59790;SDS011;47431;51.640;5.554;2022-07-17T08:18:02;9.40;;;3.60;;
59790;SDS011;47431;51.640;5.554;2022-07-17T08:20:27;7.57;;;2.85;;
59790;SDS011;47431;51.640;5.554;2022-07-17T08:22:52;6.90;;;2.97;;
59790;SDS011;47431;51.640;5.554;2022-07-17T08:25:18;13.43;;;3.90;;
59790;SDS011;47431;51.640;5.554;2022-07-17T08:27:43;8.35;;;3.67;;
59790;SDS011;47431;51.640;5.554;2022-07-17T08:30:09;10.73;;;2.92;;
59790;SDS011;47431;51.640;5.554;2022-07-17T08:32:35;9.50;;;3.65;;
59790;SDS011;47431;51.640;5.554;2022-07-17T08:35:01;6.90;;;2.30;;
59790;SDS011;47431;51.640;5.554;2022-07-17T08:37:26;8.15;;;2.92;;
59790;SDS011;47431;51.640;5.554;2022-07-17T08:39:51;7.75;;;3.05;;
59790;SDS011;47431;51.640;5.554;2022-07-17T08:42:17;8.82;;;3.00;;
59790;SDS011;47431;51.640;5.554;2022-07-17T08:44:42;9.88;;;3.30;;
59790;SDS011;47431;51.640;5.554;2022-07-17T08:47:08;11.13;;;3.20;;
59790;SDS011;47431;51.640;5.554;2022-07-17T08:49:33;6.05;;;2.22;;
59790;SDS011;47431;51.640;5.554;2022-07-17T08:52:02;5.40;;;1.83;;
59790;SDS011;47431;51.640;5.554;2022-07-17T08:54:27;16.90;;;3.03;;
59790;SDS011;47431;51.640;5.554;2022-07-17T08:56:53;5.55;;;2.15;;
59790;SDS011;47431;51.640;5.554;2022-07-17T08:59:18;10.33;;;2.70;;
59790;SDS011;47431;51.640;5.554;2022-07-17T09:01:43;15.87;;;3.20;;
59790;SDS011;47431;51.640;5.554;2022-07-17T09:04:08;7.57;;;2.08;;
59790;SDS011;47431;51.640;5.554;2022-07-17T09:06:35;8.43;;;2.17;;
59790;SDS011;47431;51.640;5.554;2022-07-17T09:09:07;12.07;;;2.35;;
59790;SDS011;47431;51.640;5.554;2022-07-17T09:11:45;9.93;;;2.15;;
59790;SDS011;47431;51.640;5.554;2022-07-17T09:14:11;5.57;;;1.95;;
59790;SDS011;47431;51.640;5.554;2022-07-17T09:16:46;10.32;;;2.10;;
59790;SDS011;47431;51.640;5.554;2022-07-17T09:19:12;7.55;;;2.20;;
59790;SDS011;47431;51.640;5.554;2022-07-17T09:21:48;8.15;;;2.65;;
59790;SDS011;47431;51.640;5.554;2022-07-17T09:24:15;6.13;;;2.05;;
59790;SDS011;47431;51.640;5.554;2022-07-17T09:26:43;5.13;;;2.00;;
59790;SDS011;47431;51.640;5.554;2022-07-17T09:29:09;8.75;;;2.15;;
59790;SDS011;47431;51.640;5.554;2022-07-17T09:31:37;10.48;;;2.55;;
59790;SDS011;47431;51.640;5.554;2022-07-17T09:34:02;6.07;;;2.35;;
59790;SDS011;47431;51.640;5.554;2022-07-17T09:36:27;8.30;;;2.03;;
59790;SDS011;47431;51.640;5.554;2022-07-17T09:38:53;5.47;;;1.63;;
59790;SDS011;47431;51.640;5.554;2022-07-17T09:41:19;9.63;;;2.47;;
59790;SDS011;47431;51.640;5.554;2022-07-17T09:46:19;8.13;;;2.17;;
59790;SDS011;47431;51.640;5.554;2022-07-17T09:48:47;6.10;;;2.53;;
59790;SDS011;47431;51.640;5.554;2022-07-17T09:51:23;8.38;;;2.13;;
59790;SDS011;47431;51.640;5.554;2022-07-17T09:53:49;6.70;;;2.33;;
59790;SDS011;47431;51.640;5.554;2022-07-17T09:56:16;5.78;;;2.17;;
59790;SDS011;47431;51.640;5.554;2022-07-17T09:58:43;8.57;;;2.20;;
59790;SDS011;47431;51.640;5.554;2022-07-17T10:01:09;8.35;;;2.40;;
59790;SDS011;47431;51.640;5.554;2022-07-17T10:03:35;5.38;;;1.85;;
59790;SDS011;47431;51.640;5.554;2022-07-17T10:06:01;6.32;;;1.80;;
59790;SDS011;47431;51.640;5.554;2022-07-17T10:08:26;8.40;;;2.30;;
59790;SDS011;47431;51.640;5.554;2022-07-17T10:10:51;7.40;;;2.13;;
59790;SDS011;47431;51.640;5.554;2022-07-17T10:13:17;6.95;;;1.85;;
59790;SDS011;47431;51.640;5.554;2022-07-17T10:15:42;7.07;;;2.67;;
59790;SDS011;47431;51.640;5.554;2022-07-17T10:18:07;6.10;;;1.67;;
59790;SDS011;47431;51.640;5.554;2022-07-17T10:20:33;7.68;;;1.80;;
59790;SDS011;47431;51.640;5.554;2022-07-17T10:22:58;6.82;;;1.75;;
59790;SDS011;47431;51.640;5.554;2022-07-17T10:25:23;10.17;;;2.10;;
59790;SDS011;47431;51.640;5.554;2022-07-17T10:27:49;7.45;;;2.05;;
59790;SDS011;47431;51.640;5.554;2022-07-17T10:30:20;6.78;;;1.83;;
59790;SDS011;47431;51.640;5.554;2022-07-17T10:32:51;15.88;;;2.33;;
59790;SDS011;47431;51.640;5.554;2022-07-17T10:35:17;6.55;;;2.03;;
59790;SDS011;47431;51.640;5.554;2022-07-17T10:37:42;6.07;;;2.00;;
59790;SDS011;47431;51.640;5.554;2022-07-17T10:45:25;6.53;;;2.10;;
59790;SDS011;47431;51.640;5.554;2022-07-17T10:47:58;11.15;;;2.53;;
59790;SDS011;47431;51.640;5.554;2022-07-17T10:50:45;10.00;;;2.17;;
59790;SDS011;47431;51.640;5.554;2022-07-17T10:55:41;9.98;;;1.70;;
59790;SDS011;47431;51.640;5.554;2022-07-17T10:58:40;8.40;;;2.22;;
59790;SDS011;47431;51.640;5.554;2022-07-17T11:00:59;7.78;;;2.42;;
59790;SDS011;47431;51.640;5.554;2022-07-17T11:03:25;8.30;;;2.08;;
59790;SDS011;47431;51.640;5.554;2022-07-17T11:05:50;6.47;;;1.77;;
59790;SDS011;47431;51.640;5.554;2022-07-17T11:08:15;6.00;;;1.50;;
59790;SDS011;47431;51.640;5.554;2022-07-17T11:10:40;10.30;;;2.60;;
59790;SDS011;47431;51.640;5.554;2022-07-17T11:15:52;8.32;;;1.80;;
59790;SDS011;47431;51.640;5.554;2022-07-17T11:18:18;7.25;;;1.88;;
59790;SDS011;47431;51.640;5.554;2022-07-17T11:20:47;5.80;;;2.45;;
59790;SDS011;47431;51.640;5.554;2022-07-17T11:23:13;6.30;;;1.45;;
59790;SDS011;47431;51.640;5.554;2022-07-17T11:25:39;7.33;;;2.20;;
59790;SDS011;47431;51.640;5.554;2022-07-17T11:28:04;6.47;;;1.85;;
59790;SDS011;47431;51.640;5.554;2022-07-17T11:30:29;6.78;;;1.98;;
59790;SDS011;47431;51.640;5.554;2022-07-17T11:32:54;5.40;;;1.63;;
59790;SDS011;47431;51.640;5.554;2022-07-17T11:35:21;6.65;;;1.73;;
59790;SDS011;47431;51.640;5.554;2022-07-17T11:37:50;4.30;;;1.52;;
59790;SDS011;47431;51.640;5.554;2022-07-17T11:40:15;5.85;;;1.58;;
59790;SDS011;47431;51.640;5.554;2022-07-17T11:42:40;7.43;;;1.93;;
59790;SDS011;47431;51.640;5.554;2022-07-17T11:45:06;5.67;;;1.70;;
59790;SDS011;47431;51.640;5.554;2022-07-17T11:47:31;6.30;;;1.55;;
59790;SDS011;47431;51.640;5.554;2022-07-17T11:50:06;7.30;;;1.95;;
59790;SDS011;47431;51.640;5.554;2022-07-17T11:52:39;10.57;;;1.83;;
59790;SDS011;47431;51.640;5.554;2022-07-17T11:55:04;5.97;;;1.60;;
59790;SDS011;47431;51.640;5.554;2022-07-17T11:57:30;6.03;;;1.42;;
59790;SDS011;47431;51.640;5.554;2022-07-17T12:00:06;5.28;;;1.48;;
59790;SDS011;47431;51.640;5.554;2022-07-17T12:02:31;10.07;;;2.58;;
59790;SDS011;47431;51.640;5.554;2022-07-17T12:04:57;5.47;;;1.85;;
59790;SDS011;47431;51.640;5.554;2022-07-17T12:07:24;6.10;;;2.22;;
59790;SDS011;47431;51.640;5.554;2022-07-17T12:09:49;9.20;;;2.25;;
59790;SDS011;47431;51.640;5.554;2022-07-17T12:12:22;6.70;;;2.13;;
59790;SDS011;47431;51.640;5.554;2022-07-17T12:14:54;11.73;;;2.33;;
59790;SDS011;47431;51.640;5.554;2022-07-17T12:17:19;6.57;;;2.00;;
59790;SDS011;47431;51.640;5.554;2022-07-17T12:19:45;4.82;;;1.80;;
59790;SDS011;47431;51.640;5.554;2022-07-17T12:22:10;7.50;;;2.30;;
59790;SDS011;47431;51.640;5.554;2022-07-17T12:24:39;7.07;;;2.38;;
59790;SDS011;47431;51.640;5.554;2022-07-17T12:27:05;9.25;;;1.98;;
59790;SDS011;47431;51.640;5.554;2022-07-17T12:29:31;8.93;;;1.95;;
59790;SDS011;47431;51.640;5.554;2022-07-17T12:32:00;7.95;;;1.65;;
59790;SDS011;47431;51.640;5.554;2022-07-17T12:34:25;7.20;;;1.65;;
59790;SDS011;47431;51.640;5.554;2022-07-17T12:36:50;4.97;;;1.83;;
59790;SDS011;47431;51.640;5.554;2022-07-17T12:39:16;9.37;;;1.60;;
59790;SDS011;47431;51.640;5.554;2022-07-17T12:41:41;5.83;;;1.53;;
59790;SDS011;47431;51.640;5.554;2022-07-17T12:44:06;4.75;;;2.05;;
59790;SDS011;47431;51.640;5.554;2022-07-17T12:46:31;5.90;;;1.60;;
59790;SDS011;47431;51.640;5.554;2022-07-17T12:48:56;5.38;;;1.95;;
59790;SDS011;47431;51.640;5.554;2022-07-17T12:51:22;9.80;;;1.73;;
59790;SDS011;47431;51.640;5.554;2022-07-17T12:53:47;7.53;;;2.05;;
59790;SDS011;47431;51.640;5.554;2022-07-17T12:56:12;5.95;;;1.73;;
59790;SDS011;47431;51.640;5.554;2022-07-17T12:58:37;4.80;;;1.20;;
59790;SDS011;47431;51.640;5.554;2022-07-17T13:01:03;5.65;;;1.70;;
59790;SDS011;47431;51.640;5.554;2022-07-17T13:03:29;4.80;;;1.45;;
59790;SDS011;47431;51.640;5.554;2022-07-17T13:05:54;5.43;;;1.40;;
59790;SDS011;47431;51.640;5.554;2022-07-17T13:08:19;5.23;;;1.67;;
59790;SDS011;47431;51.640;5.554;2022-07-17T13:10:45;5.57;;;1.53;;
59790;SDS011;47431;51.640;5.554;2022-07-17T13:13:10;6.30;;;1.73;;
59790;SDS011;47431;51.640;5.554;2022-07-17T13:15:35;8.37;;;2.10;;
59790;SDS011;47431;51.640;5.554;2022-07-17T13:18:00;7.77;;;2.10;;
59790;SDS011;47431;51.640;5.554;2022-07-17T13:20:26;5.25;;;1.80;;
59790;SDS011;47431;51.640;5.554;2022-07-17T13:22:51;8.65;;;1.77;;
59790;SDS011;47431;51.640;5.554;2022-07-17T13:25:16;6.50;;;1.73;;
59790;SDS011;47431;51.640;5.554;2022-07-17T13:27:42;5.35;;;1.60;;
59790;SDS011;47431;51.640;5.554;2022-07-17T13:30:07;5.07;;;1.40;;
59790;SDS011;47431;51.640;5.554;2022-07-17T13:32:33;5.55;;;2.42;;
59790;SDS011;47431;51.640;5.554;2022-07-17T13:34:58;5.07;;;1.30;;
59790;SDS011;47431;51.640;5.554;2022-07-17T13:37:23;4.67;;;1.20;;
59790;SDS011;47431;51.640;5.554;2022-07-17T13:39:48;6.47;;;1.85;;
59790;SDS011;47431;51.640;5.554;2022-07-17T13:42:13;3.67;;;1.37;;
59790;SDS011;47431;51.640;5.554;2022-07-17T13:44:40;5.40;;;1.52;;
59790;SDS011;47431;51.640;5.554;2022-07-17T13:47:05;6.13;;;1.93;;
59790;SDS011;47431;51.640;5.554;2022-07-17T13:49:31;7.10;;;1.90;;
59790;SDS011;47431;51.640;5.554;2022-07-17T13:51:56;5.07;;;1.40;;
59790;SDS011;47431;51.640;5.554;2022-07-17T13:54:21;4.85;;;1.73;;
59790;SDS011;47431;51.640;5.554;2022-07-17T13:56:47;8.05;;;2.08;;
59790;SDS011;47431;51.640;5.554;2022-07-17T13:59:12;6.60;;;1.60;;
59790;SDS011;47431;51.640;5.554;2022-07-17T14:01:37;5.20;;;1.67;;
59790;SDS011;47431;51.640;5.554;2022-07-17T14:04:02;6.37;;;2.20;;
59790;SDS011;47431;51.640;5.554;2022-07-17T14:06:28;7.90;;;1.83;;
59790;SDS011;47431;51.640;5.554;2022-07-17T14:08:53;4.45;;;1.95;;
59790;SDS011;47431;51.640;5.554;2022-07-17T14:11:18;6.35;;;1.80;;
59790;SDS011;47431;51.640;5.554;2022-07-17T14:13:43;7.45;;;2.13;;
59790;SDS011;47431;51.640;5.554;2022-07-17T14:16:09;4.50;;;1.77;;
59790;SDS011;47431;51.640;5.554;2022-07-17T14:18:34;5.33;;;1.80;;
59790;SDS011;47431;51.640;5.554;2022-07-17T14:20:59;11.07;;;2.17;;
59790;SDS011;47431;51.640;5.554;2022-07-17T14:23:24;7.63;;;1.88;;
59790;SDS011;47431;51.640;5.554;2022-07-17T14:25:49;5.27;;;1.70;;
59790;SDS011;47431;51.640;5.554;2022-07-17T14:28:15;4.60;;;1.60;;
59790;SDS011;47431;51.640;5.554;2022-07-17T14:30:40;4.13;;;1.60;;
59790;SDS011;47431;51.640;5.554;2022-07-17T14:33:05;5.60;;;1.33;;
59790;SDS011;47431;51.640;5.554;2022-07-17T14:35:31;5.57;;;1.65;;
59790;SDS011;47431;51.640;5.554;2022-07-17T14:37:57;6.18;;;2.28;;
59790;SDS011;47431;51.640;5.554;2022-07-17T14:40:22;5.43;;;1.63;;
59790;SDS011;47431;51.640;5.554;2022-07-17T14:42:47;3.78;;;1.42;;
59790;SDS011;47431;51.640;5.554;2022-07-17T14:45:12;5.40;;;1.73;;
59790;SDS011;47431;51.640;5.554;2022-07-17T14:47:38;11.73;;;3.38;;
59790;SDS011;47431;51.640;5.554;2022-07-17T14:50:05;4.40;;;1.77;;
59790;SDS011;47431;51.640;5.554;2022-07-17T14:52:31;5.13;;;1.58;;
59790;SDS011;47431;51.640;5.554;2022-07-17T14:54:57;6.45;;;1.45;;
59790;SDS011;47431;51.640;5.554;2022-07-17T14:57:22;5.97;;;1.80;;
59790;SDS011;47431;51.640;5.554;2022-07-17T14:59:48;6.55;;;1.75;;